Time;durP1;ratioP1;P1;durP2;ratioP2;P2;SDS_P1;SDS_P2;PMS_P1;PMS_P2;Temp;Humidity;BMP_temperature;BMP_pressure;BME280_temperature;BME280_humidity;BME280_pressure;Samples;Min_cycle;Max_cycle;Signal;HPM_P1;HPM_P2
2022/03/04 00:05:36;;;;;;;2.80;1.38;;;8.10;63.90;;;;;;20896476;28;20373;-75
2022/03/04 00:15:36;;;;;;;4.72;1.98;;;8.10;63.90;;;;;;20863041;28;20370;-75
2022/03/04 00:25:37;;;;;;;2.05;1.25;;;8.10;64.50;;;;;;20912626;28;20445;-76
2022/03/04 00:35:38;;;;;;;3.65;1.60;;;8.10;63.90;;;;;;20861920;28;20276;-76
2022/03/04 00:45:39;;;;;;;3.03;1.23;;;8.10;63.90;;;;;;20860634;28;20067;-75
2022/03/04 00:55:40;;;;;;;3.60;1.73;;;8.10;63.90;;;;;;20860076;28;20060;-76
2022/03/04 01:05:40;;;;;;;2.75;1.50;;;8.10;63.90;;;;;;20859655;28;20044;-76
2022/03/04 01:15:41;;;;;;;2.80;1.13;;;8.10;63.90;;;;;;20863955;28;20051;-75
2022/03/04 01:25:41;;;;;;;2.83;1.83;;;8.10;63.90;;;;;;20923457;28;20503;-75
2022/03/04 01:35:42;;;;;;;2.05;1.10;;;8.10;64.00;;;;;;20893161;28;20059;-76
2022/03/04 01:45:43;;;;;;;3.15;1.30;;;8.10;64.00;;;;;;20873743;28;20112;-76
2022/03/04 01:55:44;;;;;;;2.45;1.48;;;8.10;64.00;;;;;;20857604;28;20542;-75
2022/03/04 02:05:45;;;;;;;2.33;1.17;;;8.10;64.00;;;;;;20889727;28;20500;-75
2022/03/04 02:15:46;;;;;;;2.55;1.30;;;8.00;63.90;;;;;;20856604;28;20029;-75
2022/03/04 02:25:51;;;;;;;2.17;1.25;;;8.00;64.00;;;;;;20882271;28;20591;-75
2022/03/04 02:35:51;;;;;;;3.17;1.42;;;8.10;64.00;;;;;;20871407;28;20036;-76
2022/03/04 02:45:52;;;;;;;5.33;1.20;;;8.00;64.00;;;;;;20870280;28;20032;-75
2022/03/04 02:55:53;;;;;;;1.70;1.17;;;8.10;64.10;;;;;;20869673;28;20294;-75
2022/03/04 03:05:53;;;;;;;3.85;1.70;;;8.00;64.00;;;;;;20868769;28;20029;-76
2022/03/04 03:15:54;;;;;;;5.63;1.43;;;8.10;64.10;;;;;;20884146;28;20396;-75
2022/03/04 03:25:54;;;;;;;1.67;1.00;;;8.10;63.90;;;;;;20883601;28;20334;-75
2022/03/04 03:35:55;;;;;;;5.75;1.95;;;8.10;63.80;;;;;;20860197;28;20704;-75
2022/03/04 03:45:56;;;;;;;3.45;1.60;;;8.10;63.80;;;;;;20862680;28;20045;-76
2022/03/04 03:55:57;;;;;;;3.95;1.48;;;8.10;63.90;;;;;;20881579;28;20539;-75
2022/03/04 04:05:58;;;;;;;2.53;1.23;;;8.00;63.90;;;;;;20861494;28;20120;-75
2022/03/04 04:15:58;;;;;;;3.30;1.70;;;8.10;63.90;;;;;;20863202;28;20064;-76
2022/03/04 04:25:59;;;;;;;2.72;1.15;;;8.00;63.90;;;;;;20894690;28;20073;-76
2022/03/04 04:35:59;;;;;;;4.35;1.70;;;8.00;63.90;;;;;;20861900;28;20109;-76
2022/03/04 04:46:00;;;;;;;3.35;1.27;;;8.00;63.90;;;;;;20861201;28;20040;-76
2022/03/04 04:56:01;;;;;;;3.40;1.35;;;8.00;63.90;;;;;;20860330;28;20068;-76
2022/03/04 05:06:02;;;;;;;2.15;1.08;;;8.00;64.00;;;;;;20859347;28;20110;-75
2022/03/04 05:16:03;;;;;;;2.55;1.30;;;8.00;64.00;;;;;;20874503;28;20068;-74
2022/03/04 05:26:03;;;;;;;2.25;1.30;;;8.20;63.70;;;;;;20842209;28;20072;-76
2022/03/04 05:36:04;;;;;;;1.73;0.95;;;8.50;63.10;;;;;;20874037;28;20040;-77
2022/03/04 05:46:05;;;;;;;2.25;1.15;;;8.90;62.30;;;;;;20890133;28;20057;-74
2022/03/04 05:56:07;;;;;;;3.95;1.42;;;9.20;61.20;;;;;;20879916;28;20025;-81
2022/03/04 06:06:10;;;;;;;1.75;1.17;;;9.40;60.40;;;;;;20874168;28;20071;-77
2022/03/04 06:16:10;;;;;;;1.70;0.98;;;9.60;59.90;;;;;;20906243;28;20037;-78
2022/03/04 06:26:11;;;;;;;3.58;1.50;;;9.60;59.70;;;;;;20949714;28;20047;-75
2022/03/04 06:36:13;;;;;;;3.35;1.42;;;9.60;59.70;;;;;;20905363;28;20036;-78
2022/03/04 06:46:13;;;;;;;1.70;0.80;;;9.30;59.90;;;;;;20922505;28;20127;-80
2022/03/04 06:56:17;;;;;;;3.95;1.70;;;9.10;60.50;;;;;;20948913;28;20071;-80
2022/03/04 07:06:19;;;;;;;2.55;1.25;;;8.90;61.10;;;;;;20895431;28;20039;-80
2022/03/04 07:16:20;;;;;;;1.83;0.77;;;8.70;61.60;;;;;;20868969;28;20362;-80
2022/03/04 07:26:20;;;;;;;2.25;1.20;;;8.50;62.10;;;;;;20912860;28;20041;-80
2022/03/04 07:36:21;;;;;;;2.75;1.20;;;8.40;62.40;;;;;;20897422;28;20028;-79
2022/03/04 07:46:22;;;;;;;1.73;1.05;;;8.30;62.70;;;;;;20881906;28;20061;-78
2022/03/04 07:56:22;;;;;;;2.13;0.90;;;8.30;63.00;;;;;;20898378;28;20385;-79
2022/03/04 08:06:23;;;;;;;2.20;1.17;;;8.30;63.20;;;;;;20895384;28;20037;-77
2022/03/04 08:16:29;;;;;;;1.77;0.88;;;8.20;63.40;;;;;;20856459;28;20040;-80
2022/03/04 08:26:30;;;;;;;2.55;0.90;;;8.20;63.60;;;;;;20918735;28;20040;-79
2022/03/04 08:36:32;;;;;;;2.50;0.82;;;8.10;63.70;;;;;;20913119;28;20033;-79
2022/03/04 08:46:33;;;;;;;2.13;0.90;;;8.10;63.80;;;;;;20907763;28;20086;-80
2022/03/04 08:56:34;;;;;;;1.65;0.85;;;8.10;63.90;;;;;;20917629;28;20061;-79
2022/03/04 09:06:35;;;;;;;1.70;0.73;;;8.10;64.00;;;;;;20907763;28;20033;-79
2022/03/04 09:16:35;;;;;;;1.70;1.03;;;8.10;64.10;;;;;;20873624;28;20028;-79
2022/03/04 09:26:36;;;;;;;1.35;0.95;;;8.00;64.10;;;;;;20917405;28;20438;-79
2022/03/04 09:36:37;;;;;;;1.88;0.70;;;8.10;64.10;;;;;;20870808;28;20037;-79
2022/03/04 09:46:39;;;;;;;1.40;0.57;;;8.10;64.20;;;;;;20874892;28;20073;-79
2022/03/04 09:56:39;;;;;;;1.58;0.90;;;8.10;64.20;;;;;;20877083;28;20029;-79
2022/03/04 10:06:44;;;;;;;1.83;0.93;;;8.10;64.20;;;;;;20906432;28;20048;-79
2022/03/04 10:16:45;;;;;;;1.75;0.77;;;8.20;64.20;;;;;;20840476;28;20036;-78
2022/03/04 10:26:46;;;;;;;0.90;0.63;;;8.10;64.20;;;;;;20806960;28;20550;-78
2022/03/04 10:36:53;;;;;;;0.82;0.60;;;8.10;64.20;;;;;;20858593;28;20119;-79
2022/03/04 10:46:57;;;;;;;1.42;0.70;;;8.10;64.20;;;;;;20934825;28;20394;-75
2022/03/04 10:56:58;;;;;;;2.03;0.63;;;8.10;64.20;;;;;;20890058;28;20032;-76
2022/03/04 11:06:59;;;;;;;1.58;0.80;;;8.10;64.20;;;;;;20910673;28;20067;-77
2022/03/04 11:17:00;;;;;;;1.10;0.60;;;8.10;64.10;;;;;;20883519;28;20393;-79
2022/03/04 11:27:01;;;;;;;1.83;0.75;;;8.30;63.80;;;;;;21290944;22;20053;-77
2022/03/04 11:37:03;;;;;;;0.93;0.63;;;8.60;63.20;;;;;;20810857;28;20035;-73
2022/03/04 11:47:05;;;;;;;2.03;0.88;;;8.90;62.30;;;;;;20799067;28;20445;-74
2022/03/04 11:57:22;;;;;;;1.48;0.77;;;9.20;61.50;;;;;;20814476;28;20469;-72
2022/03/04 12:07:23;;;;;;;1.08;0.50;;;9.40;60.90;;;;;;20812748;28;20041;-76
2022/03/04 12:17:23;;;;;;;0.93;0.40;;;9.40;60.60;;;;;;20796125;28;20091;-75
2022/03/04 12:27:39;;;;;;;1.43;0.73;;;9.20;60.80;;;;;;20799049;28;20049;-76
2022/03/04 12:37:39;;;;;;;0.68;0.52;;;9.10;61.30;;;;;;20810585;28;20284;-72
2022/03/04 12:47:40;;;;;;;0.57;0.30;;;8.80;61.70;;;;;;20801497;28;20060;-74
2022/03/04 12:57:41;;;;;;;3.50;0.88;;;8.80;62.90;;;;;;20827300;28;20026;-73
2022/03/04 13:07:42;;;;;;;5.88;0.98;;;8.60;62.40;;;;;;20818842;28;20137;-73
2022/03/04 13:17:42;;;;;;;0.98;0.55;;;8.50;62.70;;;;;;20790848;28;20495;-75
2022/03/04 13:27:44;;;;;;;4.45;0.50;;;8.50;63.00;;;;;;20819262;28;20394;-76
2022/03/04 13:37:45;;;;;;;2.03;0.57;;;8.50;63.20;;;;;;20806899;28;20034;-76
2022/03/04 13:47:58;;;;;;;1.38;0.60;;;8.40;63.40;;;;;;20791011;28;20539;-76
2022/03/04 13:58:06;;;;;;;6.20;0.70;;;8.40;63.60;;;;;;20790435;28;20041;-76
2022/03/04 14:08:10;;;;;;;2.05;0.45;;;8.40;63.80;;;;;;20788985;28;20048;-75
2022/03/04 14:18:12;;;;;;;0.73;0.30;;;8.40;64.10;;;;;;20812731;28;20037;-75
2022/03/04 14:28:13;;;;;;;1.05;0.50;;;8.30;64.10;;;;;;20809806;28;20074;-76
2022/03/04 14:38:15;;;;;;;0.55;0.30;;;8.30;64.20;;;;;;20815024;28;20037;-73
2022/03/04 14:48:15;;;;;;;3.00;0.35;;;8.30;64.30;;;;;;20804345;28;20037;-74
2022/03/04 14:58:16;;;;;;;1.92;0.52;;;8.30;64.30;;;;;;20801068;28;20041;-74
2022/03/04 15:08:16;;;;;;;5.67;0.80;;;8.30;64.40;;;;;;20803034;28;20473;-75
2022/03/04 15:18:17;;;;;;;2.55;1.30;;;8.30;64.30;;;;;;20815151;28;20288;-76
2022/03/04 15:28:18;;;;;;;1.67;0.77;;;8.30;63.80;;;;;;20801076;28;20106;-75
2022/03/04 15:38:19;;;;;;;1.60;0.82;;;8.30;63.70;;;;;;20816593;28;20453;-76
2022/03/04 15:48:19;;;;;;;1.40;0.57;;;8.40;63.70;;;;;;20815838;28;20076;-77
2022/03/04 15:58:20;;;;;;;2.95;0.57;;;8.50;63.60;;;;;;20813185;28;20037;-76
2022/03/04 16:08:21;;;;;;;1.40;0.55;;;8.70;63.20;;;;;;20799141;28;20056;-76
2022/03/04 16:18:22;;;;;;;1.42;0.73;;;8.90;62.80;;;;;;20806173;28;20041;-75
2022/03/04 16:28:22;;;;;;;1.23;0.63;;;9.10;62.20;;;;;;20810879;28;20103;-74
2022/03/04 16:38:23;;;;;;;6.40;1.30;;;9.30;61.70;;;;;;20793948;28;20069;-75
2022/03/04 16:48:23;;;;;;;6.93;1.30;;;9.30;61.00;;;;;;20776322;28;20442;-75
2022/03/04 16:58:24;;;;;;;2.88;0.95;;;9.30;60.60;;;;;;20778023;28;20056;-76
2022/03/04 17:08:26;;;;;;;4.38;1.20;;;9.20;60.80;;;;;;20800322;28;20088;-79
2022/03/04 17:18:33;;;;;;;7.72;2.03;;;9.00;61.30;;;;;;20816350;28;20033;-75
2022/03/04 17:28:34;;;;;;;1.73;0.95;;;8.80;61.60;;;;;;20796460;28;20500;-74
2022/03/04 17:38:36;;;;;;;8.60;0.97;;;8.70;62.20;;;;;;20825258;28;20041;-81
2022/03/04 17:48:36;;;;;;;2.75;0.95;;;8.60;62.50;;;;;;20808328;28;20448;-76
2022/03/04 17:58:37;;;;;;;2.00;0.80;;;8.50;62.90;;;;;;20806990;28;20069;-76
2022/03/04 18:08:37;;;;;;;1.55;0.85;;;8.40;63.00;;;;;;20821053;28;20309;-76
2022/03/04 18:18:38;;;;;;;0.88;0.40;;;8.40;63.30;;;;;;20811635;28;20126;-75
2022/03/04 18:28:39;;;;;;;0.88;0.57;;;8.30;63.40;;;;;;20820025;28;20052;-75
2022/03/04 18:49:00;;;;;;;1.17;0.73;;;8.30;63.70;;;;;;20827607;28;20464;-74
2022/03/04 18:59:00;;;;;;;1.80;0.60;;;8.30;63.90;;;;;;20818124;28;20042;-75
2022/03/04 19:09:01;;;;;;;2.05;0.95;;;8.20;64.00;;;;;;20797140;28;20030;-75
2022/03/04 19:19:08;;;;;;;1.23;0.65;;;8.30;64.10;;;;;;20823654;28;20049;-76
2022/03/04 19:29:09;;;;;;;2.08;0.90;;;8.20;64.10;;;;;;20866842;28;20443;-77
2022/03/04 19:39:09;;;;;;;2.60;0.82;;;8.20;64.20;;;;;;20898174;28;20033;-76
2022/03/04 19:49:10;;;;;;;2.42;0.73;;;8.20;64.10;;;;;;20864477;28;20132;-75
2022/03/04 19:59:10;;;;;;;0.82;0.50;;;8.30;64.20;;;;;;20882477;28;20078;-76
2022/03/04 20:09:12;;;;;;;1.27;0.68;;;8.20;64.10;;;;;;20898911;28;20493;-78
2022/03/04 20:19:12;;;;;;;1.27;0.90;;;8.30;64.20;;;;;;20792651;28;20033;-75
2022/03/04 20:29:13;;;;;;;2.08;0.90;;;8.30;64.10;;;;;;20803045;28;20436;-74
2022/03/04 20:39:13;;;;;;;1.47;0.70;;;8.30;64.20;;;;;;20810471;28;20033;-74
2022/03/04 20:49:14;;;;;;;1.95;0.70;;;8.20;64.20;;;;;;20794132;28;20374;-74
2022/03/04 20:59:15;;;;;;;1.90;0.82;;;8.30;64.20;;;;;;20803550;28;20030;-74
2022/03/04 21:09:15;;;;;;;0.88;0.60;;;8.20;64.10;;;;;;20794103;28;20076;-75
2022/03/04 21:19:16;;;;;;;2.75;1.13;;;8.20;64.10;;;;;;20793011;28;20029;-74
2022/03/04 21:29:16;;;;;;;1.70;0.75;;;8.30;64.20;;;;;;20804505;28;20489;-75
2022/03/04 21:39:17;;;;;;;2.55;1.10;;;8.30;64.20;;;;;;20791424;28;20044;-74
2022/03/04 21:49:18;;;;;;;1.67;0.80;;;8.30;64.20;;;;;;20807456;28;20454;-74
2022/03/04 21:59:18;;;;;;;2.42;1.00;;;8.30;64.20;;;;;;20790700;28;20482;-75
2022/03/04 22:09:21;;;;;;;2.08;1.02;;;8.20;64.10;;;;;;20789032;28;20033;-74
2022/03/04 22:19:22;;;;;;;1.88;1.20;;;8.20;64.10;;;;;;20775358;28;20462;-74
2022/03/04 22:29:23;;;;;;;3.60;1.45;;;8.20;64.10;;;;;;20788895;28;20128;-75
2022/03/04 22:39:23;;;;;;;2.25;1.30;;;8.20;64.10;;;;;;20810396;28;20083;-75
2022/03/04 22:49:24;;;;;;;2.72;1.25;;;8.30;64.10;;;;;;20787024;28;20076;-74
2022/03/04 22:59:24;;;;;;;2.45;1.45;;;8.20;64.10;;;;;;20770891;28;20103;-74
2022/03/04 23:09:25;;;;;;;3.30;1.40;;;8.20;64.10;;;;;;20796445;28;20033;-75
2022/03/04 23:19:26;;;;;;;2.13;1.10;;;8.20;64.10;;;;;;20800707;28;20025;-75
2022/03/04 23:29:26;;;;;;;2.85;1.10;;;8.20;64.10;;;;;;20815223;28;20043;-76
2022/03/04 23:39:27;;;;;;;3.70;1.48;;;8.20;64.10;;;;;;20799873;28;20033;-75
2022/03/04 23:49:28;;;;;;;4.78;1.48;;;8.20;64.10;;;;;;20798309;28;20037;-76
2022/03/04 23:59:28;;;;;;;2.80;1.20;;;8.20;64.00;;;;;;20814745;28;20064;-75
